sensor_id;sensor_type;location;lat;lon;timestamp;pressure;altitude;pressure_sealevel;temperature
16956;BMP180;8594;52.052;8.354;2023-02-18T00:00:01;101073.00;;;11.20
16956;BMP180;8594;52.052;8.354;2023-02-18T00:04:58;101072.00;;;11.20
16956;BMP180;8594;52.052;8.354;2023-02-18T00:07:25;101081.00;;;11.30
16956;BMP180;8594;52.052;8.354;2023-02-18T00:09:51;101074.00;;;11.20
16956;BMP180;8594;52.052;8.354;2023-02-18T00:12:18;101080.00;;;11.30
16956;BMP180;8594;52.052;8.354;2023-02-18T00:14:45;101086.00;;;11.50
16956;BMP180;8594;52.052;8.354;2023-02-18T00:17:12;101077.00;;;11.30
16956;BMP180;8594;52.052;8.354;2023-02-18T00:19:40;101072.00;;;11.20
16956;BMP180;8594;52.052;8.354;2023-02-18T00:22:06;101068.00;;;11.20
16956;BMP180;8594;52.052;8.354;2023-02-18T00:24:33;101074.00;;;10.90
16956;BMP180;8594;52.052;8.354;2023-02-18T00:27:00;101072.00;;;10.90
16956;BMP180;8594;52.052;8.354;2023-02-18T00:29:27;101060.00;;;11.00
16956;BMP180;8594;52.052;8.354;2023-02-18T00:31:53;101049.00;;;11.20
16956;BMP180;8594;52.052;8.354;2023-02-18T00:34:20;101057.00;;;11.20
16956;BMP180;8594;52.052;8.354;2023-02-18T00:36:48;101057.00;;;11.20
16956;BMP180;8594;52.052;8.354;2023-02-18T00:39:15;101063.00;;;11.40
16956;BMP180;8594;52.052;8.354;2023-02-18T00:41:43;101060.00;;;11.20
16956;BMP180;8594;52.052;8.354;2023-02-18T00:44:11;101054.00;;;11.40
16956;BMP180;8594;52.052;8.354;2023-02-18T00:46:37;101067.00;;;11.40
16956;BMP180;8594;52.052;8.354;2023-02-18T00:49:05;101074.00;;;11.30
16956;BMP180;8594;52.052;8.354;2023-02-18T00:51:32;101076.00;;;11.30
16956;BMP180;8594;52.052;8.354;2023-02-18T00:54:01;101062.00;;;11.20
16956;BMP180;8594;52.052;8.354;2023-02-18T00:56:27;101071.00;;;11.30
16956;BMP180;8594;52.052;8.354;2023-02-18T00:58:54;101068.00;;;11.50
16956;BMP180;8594;52.052;8.354;2023-02-18T01:01:21;101062.00;;;11.50
16956;BMP180;8594;52.052;8.354;2023-02-18T01:03:49;101054.00;;;11.30
16956;BMP180;8594;52.052;8.354;2023-02-18T01:06:16;101061.00;;;11.40
16956;BMP180;8594;52.052;8.354;2023-02-18T01:08:42;101050.00;;;11.40
16956;BMP180;8594;52.052;8.354;2023-02-18T01:11:12;101056.00;;;11.60
16956;BMP180;8594;52.052;8.354;2023-02-18T01:13:40;101054.00;;;11.50
16956;BMP180;8594;52.052;8.354;2023-02-18T01:16:07;101051.00;;;11.50
16956;BMP180;8594;52.052;8.354;2023-02-18T01:18:34;101047.00;;;11.50
16956;BMP180;8594;52.052;8.354;2023-02-18T01:21:01;101056.00;;;11.70
16956;BMP180;8594;52.052;8.354;2023-02-18T01:23:29;101048.00;;;11.60
16956;BMP180;8594;52.052;8.354;2023-02-18T01:25:57;101048.00;;;11.70
16956;BMP180;8594;52.052;8.354;2023-02-18T01:28:25;101051.00;;;11.70
16956;BMP180;8594;52.052;8.354;2023-02-18T01:30:52;101053.00;;;11.80
16956;BMP180;8594;52.052;8.354;2023-02-18T01:33:20;101037.00;;;11.80
16956;BMP180;8594;52.052;8.354;2023-02-18T01:35:47;101031.00;;;11.70
16956;BMP180;8594;52.052;8.354;2023-02-18T01:38:14;101025.00;;;11.60
16956;BMP180;8594;52.052;8.354;2023-02-18T01:40:48;101027.00;;;12.00
16956;BMP180;8594;52.052;8.354;2023-02-18T01:43:18;101028.00;;;11.90
16956;BMP180;8594;52.052;8.354;2023-02-18T01:46:11;101023.00;;;11.70
16956;BMP180;8594;52.052;8.354;2023-02-18T01:48:42;101015.00;;;12.00
16956;BMP180;8594;52.052;8.354;2023-02-18T01:51:13;101009.00;;;11.90
16956;BMP180;8594;52.052;8.354;2023-02-18T01:53:50;101011.00;;;11.90
16956;BMP180;8594;52.052;8.354;2023-02-18T01:56:26;101008.00;;;12.10
16956;BMP180;8594;52.052;8.354;2023-02-18T01:58:56;101007.00;;;12.00
16956;BMP180;8594;52.052;8.354;2023-02-18T02:01:27;101003.00;;;12.00
16956;BMP180;8594;52.052;8.354;2023-02-18T02:03:54;101004.00;;;12.00
16956;BMP180;8594;52.052;8.354;2023-02-18T02:06:23;101010.00;;;12.10
16956;BMP180;8594;52.052;8.354;2023-02-18T02:08:53;101005.00;;;12.00
16956;BMP180;8594;52.052;8.354;2023-02-18T02:11:34;101003.00;;;12.10
16956;BMP180;8594;52.052;8.354;2023-02-18T02:14:34;100992.00;;;12.00
16956;BMP180;8594;52.052;8.354;2023-02-18T02:17:17;100979.00;;;12.20
16956;BMP180;8594;52.052;8.354;2023-02-18T02:20:42;100983.00;;;12.20
16956;BMP180;8594;52.052;8.354;2023-02-18T02:23:55;100968.00;;;12.30
16956;BMP180;8594;52.052;8.354;2023-02-18T02:27:12;100973.00;;;12.10
16956;BMP180;8594;52.052;8.354;2023-02-18T02:30:27;100971.00;;;11.90
16956;BMP180;8594;52.052;8.354;2023-02-18T02:33:37;100951.00;;;11.80
16956;BMP180;8594;52.052;8.354;2023-02-18T02:36:13;100948.00;;;12.00
16956;BMP180;8594;52.052;8.354;2023-02-18T02:38:54;100939.00;;;11.90
16956;BMP180;8594;52.052;8.354;2023-02-18T02:41:38;100936.00;;;11.60
16956;BMP180;8594;52.052;8.354;2023-02-18T02:44:19;100929.00;;;12.00
16956;BMP180;8594;52.052;8.354;2023-02-18T02:46:50;100930.00;;;12.10
16956;BMP180;8594;52.052;8.354;2023-02-18T02:49:33;100922.00;;;11.90
16956;BMP180;8594;52.052;8.354;2023-02-18T02:52:11;100915.00;;;12.00
16956;BMP180;8594;52.052;8.354;2023-02-18T02:54:39;100917.00;;;12.20
16956;BMP180;8594;52.052;8.354;2023-02-18T02:57:43;100916.00;;;12.20
16956;BMP180;8594;52.052;8.354;2023-02-18T03:00:13;100916.00;;;12.20
16956;BMP180;8594;52.052;8.354;2023-02-18T03:03:06;100911.00;;;12.30
16956;BMP180;8594;52.052;8.354;2023-02-18T03:05:47;100904.00;;;12.30
16956;BMP180;8594;52.052;8.354;2023-02-18T03:08:33;100905.00;;;12.50
16956;BMP180;8594;52.052;8.354;2023-02-18T03:11:06;100899.00;;;12.40
16956;BMP180;8594;52.052;8.354;2023-02-18T03:13:52;100897.00;;;12.50
16956;BMP180;8594;52.052;8.354;2023-02-18T03:16:26;100894.00;;;12.40
16956;BMP180;8594;52.052;8.354;2023-02-18T03:19:05;100891.00;;;12.40
16956;BMP180;8594;52.052;8.354;2023-02-18T03:21:40;100882.00;;;12.70
16956;BMP180;8594;52.052;8.354;2023-02-18T03:24:15;100876.00;;;12.70
16956;BMP180;8594;52.052;8.354;2023-02-18T03:26:47;100872.00;;;12.40
16956;BMP180;8594;52.052;8.354;2023-02-18T03:29:18;100871.00;;;12.50
16956;BMP180;8594;52.052;8.354;2023-02-18T03:31:51;100865.00;;;12.30
16956;BMP180;8594;52.052;8.354;2023-02-18T03:34:25;100865.00;;;12.50
16956;BMP180;8594;52.052;8.354;2023-02-18T03:36:55;100862.00;;;12.40
16956;BMP180;8594;52.052;8.354;2023-02-18T03:39:27;100858.00;;;12.50
16956;BMP180;8594;52.052;8.354;2023-02-18T03:41:54;100852.00;;;12.70
16956;BMP180;8594;52.052;8.354;2023-02-18T03:44:24;100851.00;;;12.50
16956;BMP180;8594;52.052;8.354;2023-02-18T03:46:52;100852.00;;;12.30
16956;BMP180;8594;52.052;8.354;2023-02-18T03:49:19;100836.00;;;12.60
16956;BMP180;8594;52.052;8.354;2023-02-18T03:51:46;100831.00;;;12.70
16956;BMP180;8594;52.052;8.354;2023-02-18T03:54:12;100829.00;;;12.40
16956;BMP180;8594;52.052;8.354;2023-02-18T03:56:39;100826.00;;;12.60
16956;BMP180;8594;52.052;8.354;2023-02-18T03:59:07;100820.00;;;12.70
16956;BMP180;8594;52.052;8.354;2023-02-18T04:01:35;100822.00;;;13.00
16956;BMP180;8594;52.052;8.354;2023-02-18T04:04:02;100815.00;;;12.60
16956;BMP180;8594;52.052;8.354;2023-02-18T04:06:29;100816.00;;;12.40
16956;BMP180;8594;52.052;8.354;2023-02-18T04:08:56;100824.00;;;12.70
16956;BMP180;8594;52.052;8.354;2023-02-18T04:11:23;100823.00;;;12.70
16956;BMP180;8594;52.052;8.354;2023-02-18T04:13:49;100808.00;;;12.70
16956;BMP180;8594;52.052;8.354;2023-02-18T04:16:16;100806.00;;;12.70
16956;BMP180;8594;52.052;8.354;2023-02-18T04:18:44;100798.00;;;12.60
16956;BMP180;8594;52.052;8.354;2023-02-18T04:21:11;100800.00;;;12.70
16956;BMP180;8594;52.052;8.354;2023-02-18T04:23:38;100788.00;;;12.70
16956;BMP180;8594;52.052;8.354;2023-02-18T04:26:05;100793.00;;;12.70
16956;BMP180;8594;52.052;8.354;2023-02-18T04:28:31;100792.00;;;12.50
16956;BMP180;8594;52.052;8.354;2023-02-18T04:30:58;100792.00;;;12.70
16956;BMP180;8594;52.052;8.354;2023-02-18T04:33:25;100784.00;;;12.80
16956;BMP180;8594;52.052;8.354;2023-02-18T04:35:53;100785.00;;;12.60
16956;BMP180;8594;52.052;8.354;2023-02-18T04:38:20;100778.00;;;12.70
16956;BMP180;8594;52.052;8.354;2023-02-18T04:40:46;100775.00;;;12.60
16956;BMP180;8594;52.052;8.354;2023-02-18T04:43:13;100778.00;;;12.70
16956;BMP180;8594;52.052;8.354;2023-02-18T04:45:40;100777.00;;;12.50
16956;BMP180;8594;52.052;8.354;2023-02-18T04:48:07;100764.00;;;12.50
16956;BMP180;8594;52.052;8.354;2023-02-18T04:50:34;100757.00;;;12.50
16956;BMP180;8594;52.052;8.354;2023-02-18T04:53:02;100750.00;;;12.60
16956;BMP180;8594;52.052;8.354;2023-02-18T04:55:29;100762.00;;;12.50
16956;BMP180;8594;52.052;8.354;2023-02-18T04:57:55;100761.00;;;12.60
16956;BMP180;8594;52.052;8.354;2023-02-18T05:00:22;100752.00;;;12.70
16956;BMP180;8594;52.052;8.354;2023-02-18T05:02:49;100752.00;;;12.50
16956;BMP180;8594;52.052;8.354;2023-02-18T05:05:16;100746.00;;;12.60
16956;BMP180;8594;52.052;8.354;2023-02-18T05:07:43;100744.00;;;12.20
16956;BMP180;8594;52.052;8.354;2023-02-18T05:10:16;100741.00;;;12.20
16956;BMP180;8594;52.052;8.354;2023-02-18T05:12:43;100735.00;;;12.50
16956;BMP180;8594;52.052;8.354;2023-02-18T05:15:09;100729.00;;;12.70
16956;BMP180;8594;52.052;8.354;2023-02-18T05:17:36;100727.00;;;12.60
16956;BMP180;8594;52.052;8.354;2023-02-18T05:20:06;100730.00;;;12.50
16956;BMP180;8594;52.052;8.354;2023-02-18T05:22:33;100721.00;;;12.40
16956;BMP180;8594;52.052;8.354;2023-02-18T05:24:59;100736.00;;;12.20
16956;BMP180;8594;52.052;8.354;2023-02-18T05:27:28;100722.00;;;12.20
16956;BMP180;8594;52.052;8.354;2023-02-18T05:29:54;100715.00;;;12.20
16956;BMP180;8594;52.052;8.354;2023-02-18T05:32:22;100717.00;;;12.50
16956;BMP180;8594;52.052;8.354;2023-02-18T05:34:48;100708.00;;;12.60
16956;BMP180;8594;52.052;8.354;2023-02-18T05:37:16;100704.00;;;12.60
16956;BMP180;8594;52.052;8.354;2023-02-18T05:39:43;100699.00;;;12.20
16956;BMP180;8594;52.052;8.354;2023-02-18T05:42:10;100685.00;;;12.50
16956;BMP180;8594;52.052;8.354;2023-02-18T05:44:38;100683.00;;;12.50
16956;BMP180;8594;52.052;8.354;2023-02-18T05:47:08;100674.00;;;12.20
16956;BMP180;8594;52.052;8.354;2023-02-18T05:49:37;100671.00;;;12.60
16956;BMP180;8594;52.052;8.354;2023-02-18T05:52:04;100663.00;;;12.50
16956;BMP180;8594;52.052;8.354;2023-02-18T05:54:32;100659.00;;;12.50
16956;BMP180;8594;52.052;8.354;2023-02-18T05:56:59;100661.00;;;12.50
16956;BMP180;8594;52.052;8.354;2023-02-18T05:59:26;100657.00;;;12.40
16956;BMP180;8594;52.052;8.354;2023-02-18T06:01:54;100655.00;;;12.50
16956;BMP180;8594;52.052;8.354;2023-02-18T06:04:21;100657.00;;;12.50
16956;BMP180;8594;52.052;8.354;2023-02-18T06:06:48;100641.00;;;12.50
16956;BMP180;8594;52.052;8.354;2023-02-18T06:09:15;100637.00;;;12.60
16956;BMP180;8594;52.052;8.354;2023-02-18T06:11:42;100633.00;;;12.80
16956;BMP180;8594;52.052;8.354;2023-02-18T06:14:09;100638.00;;;12.80
16956;BMP180;8594;52.052;8.354;2023-02-18T06:16:36;100630.00;;;12.10
16956;BMP180;8594;52.052;8.354;2023-02-18T06:19:04;100639.00;;;12.30
16956;BMP180;8594;52.052;8.354;2023-02-18T06:21:31;100628.00;;;12.50
16956;BMP180;8594;52.052;8.354;2023-02-18T06:23:58;100631.00;;;12.50
16956;BMP180;8594;52.052;8.354;2023-02-18T06:26:25;100629.00;;;12.60
16956;BMP180;8594;52.052;8.354;2023-02-18T06:28:52;100626.00;;;12.60
16956;BMP180;8594;52.052;8.354;2023-02-18T06:31:19;100630.00;;;12.40
16956;BMP180;8594;52.052;8.354;2023-02-18T06:33:46;100621.00;;;12.70
16956;BMP180;8594;52.052;8.354;2023-02-18T06:36:14;100608.00;;;12.70
16956;BMP180;8594;52.052;8.354;2023-02-18T06:38:43;100621.00;;;12.10
16956;BMP180;8594;52.052;8.354;2023-02-18T06:41:12;100615.00;;;12.20
16956;BMP180;8594;52.052;8.354;2023-02-18T06:43:39;100609.00;;;12.40
16956;BMP180;8594;52.052;8.354;2023-02-18T06:46:07;100615.00;;;12.40
16956;BMP180;8594;52.052;8.354;2023-02-18T06:48:33;100605.00;;;12.80
16956;BMP180;8594;52.052;8.354;2023-02-18T06:51:00;100612.00;;;12.50
16956;BMP180;8594;52.052;8.354;2023-02-18T06:53:29;100608.00;;;12.60
16956;BMP180;8594;52.052;8.354;2023-02-18T06:55:56;100606.00;;;12.60
16956;BMP180;8594;52.052;8.354;2023-02-18T06:58:23;100599.00;;;12.40
16956;BMP180;8594;52.052;8.354;2023-02-18T07:00:50;100602.00;;;12.50
16956;BMP180;8594;52.052;8.354;2023-02-18T07:03:17;100597.00;;;12.40
16956;BMP180;8594;52.052;8.354;2023-02-18T07:05:44;100597.00;;;12.40
16956;BMP180;8594;52.052;8.354;2023-02-18T07:08:11;100598.00;;;12.50
16956;BMP180;8594;52.052;8.354;2023-02-18T07:10:39;100588.00;;;12.20
16956;BMP180;8594;52.052;8.354;2023-02-18T07:13:06;100596.00;;;12.20
16956;BMP180;8594;52.052;8.354;2023-02-18T07:15:33;100600.00;;;12.60
16956;BMP180;8594;52.052;8.354;2023-02-18T07:18:00;100589.00;;;12.20
16956;BMP180;8594;52.052;8.354;2023-02-18T07:20:27;100588.00;;;12.10
16956;BMP180;8594;52.052;8.354;2023-02-18T07:22:54;100592.00;;;12.10
16956;BMP180;8594;52.052;8.354;2023-02-18T07:25:21;100595.00;;;12.50
16956;BMP180;8594;52.052;8.354;2023-02-18T07:27:50;100573.00;;;12.10
16956;BMP180;8594;52.052;8.354;2023-02-18T07:30:18;100583.00;;;12.50
16956;BMP180;8594;52.052;8.354;2023-02-18T07:32:45;100572.00;;;12.20
16956;BMP180;8594;52.052;8.354;2023-02-18T07:35:14;100581.00;;;12.30
16956;BMP180;8594;52.052;8.354;2023-02-18T07:37:44;100572.00;;;12.60
16956;BMP180;8594;52.052;8.354;2023-02-18T07:40:14;100586.00;;;12.50
16956;BMP180;8594;52.052;8.354;2023-02-18T07:42:41;100576.00;;;12.40
16956;BMP180;8594;52.052;8.354;2023-02-18T07:45:10;100572.00;;;12.60
16956;BMP180;8594;52.052;8.354;2023-02-18T07:47:38;100570.00;;;12.60
16956;BMP180;8594;52.052;8.354;2023-02-18T07:50:07;100567.00;;;12.50
16956;BMP180;8594;52.052;8.354;2023-02-18T07:52:34;100567.00;;;12.70
16956;BMP180;8594;52.052;8.354;2023-02-18T07:55:01;100574.00;;;12.30
16956;BMP180;8594;52.052;8.354;2023-02-18T07:57:28;100569.00;;;12.50
16956;BMP180;8594;52.052;8.354;2023-02-18T07:59:55;100568.00;;;12.50
16956;BMP180;8594;52.052;8.354;2023-02-18T08:02:23;100569.00;;;12.40
16956;BMP180;8594;52.052;8.354;2023-02-18T08:04:50;100573.00;;;12.50
16956;BMP180;8594;52.052;8.354;2023-02-18T08:07:19;100587.00;;;12.60
16956;BMP180;8594;52.052;8.354;2023-02-18T08:09:47;100571.00;;;12.40
16956;BMP180;8594;52.052;8.354;2023-02-18T08:12:15;100571.00;;;12.20
16956;BMP180;8594;52.052;8.354;2023-02-18T08:14:42;100569.00;;;12.50
16956;BMP180;8594;52.052;8.354;2023-02-18T08:17:08;100571.00;;;12.40
16956;BMP180;8594;52.052;8.354;2023-02-18T08:19:37;100565.00;;;12.40
16956;BMP180;8594;52.052;8.354;2023-02-18T08:22:03;100563.00;;;12.60
16956;BMP180;8594;52.052;8.354;2023-02-18T08:24:30;100564.00;;;12.30
16956;BMP180;8594;52.052;8.354;2023-02-18T08:26:57;100558.00;;;12.40
16956;BMP180;8594;52.052;8.354;2023-02-18T08:29:24;100554.00;;;12.10
16956;BMP180;8594;52.052;8.354;2023-02-18T08:31:51;100562.00;;;12.50
16956;BMP180;8594;52.052;8.354;2023-02-18T08:34:19;100561.00;;;12.60
16956;BMP180;8594;52.052;8.354;2023-02-18T08:36:47;100565.00;;;12.20
16956;BMP180;8594;52.052;8.354;2023-02-18T08:39:14;100567.00;;;12.40
16956;BMP180;8594;52.052;8.354;2023-02-18T08:41:41;100561.00;;;12.20
16956;BMP180;8594;52.052;8.354;2023-02-18T08:44:08;100555.00;;;12.40
16956;BMP180;8594;52.052;8.354;2023-02-18T08:46:34;100563.00;;;12.50
16956;BMP180;8594;52.052;8.354;2023-02-18T08:49:02;100586.00;;;12.30
16956;BMP180;8594;52.052;8.354;2023-02-18T08:51:29;100561.00;;;12.10
16956;BMP180;8594;52.052;8.354;2023-02-18T08:53:57;100558.00;;;12.40
16956;BMP180;8594;52.052;8.354;2023-02-18T08:56:26;100564.00;;;12.20
16956;BMP180;8594;52.052;8.354;2023-02-18T08:58:53;100553.00;;;12.30
16956;BMP180;8594;52.052;8.354;2023-02-18T09:01:19;100546.00;;;12.10
16956;BMP180;8594;52.052;8.354;2023-02-18T09:03:46;100550.00;;;12.30
16956;BMP180;8594;52.052;8.354;2023-02-18T09:06:13;100554.00;;;12.30
16956;BMP180;8594;52.052;8.354;2023-02-18T09:08:40;100547.00;;;12.20
16956;BMP180;8594;52.052;8.354;2023-02-18T09:11:10;100551.00;;;12.20
16956;BMP180;8594;52.052;8.354;2023-02-18T09:13:37;100548.00;;;12.30
16956;BMP180;8594;52.052;8.354;2023-02-18T09:16:09;100532.00;;;12.10
16956;BMP180;8594;52.052;8.354;2023-02-18T09:18:36;100548.00;;;12.30
16956;BMP180;8594;52.052;8.354;2023-02-18T09:21:07;100542.00;;;12.40
16956;BMP180;8594;52.052;8.354;2023-02-18T09:23:34;100551.00;;;12.30
16956;BMP180;8594;52.052;8.354;2023-02-18T09:26:05;100549.00;;;12.00
16956;BMP180;8594;52.052;8.354;2023-02-18T09:28:33;100553.00;;;12.10
16956;BMP180;8594;52.052;8.354;2023-02-18T09:31:04;100551.00;;;12.30
16956;BMP180;8594;52.052;8.354;2023-02-18T09:33:34;100536.00;;;12.40
16956;BMP180;8594;52.052;8.354;2023-02-18T09:36:03;100547.00;;;12.30
16956;BMP180;8594;52.052;8.354;2023-02-18T09:38:29;100548.00;;;12.20
16956;BMP180;8594;52.052;8.354;2023-02-18T09:40:59;100550.00;;;12.40
16956;BMP180;8594;52.052;8.354;2023-02-18T09:43:30;100558.00;;;12.50
16956;BMP180;8594;52.052;8.354;2023-02-18T09:46:03;100556.00;;;12.20
16956;BMP180;8594;52.052;8.354;2023-02-18T09:48:35;100550.00;;;12.40
16956;BMP180;8594;52.052;8.354;2023-02-18T09:51:03;100548.00;;;12.50
16956;BMP180;8594;52.052;8.354;2023-02-18T09:53:30;100546.00;;;12.00
16956;BMP180;8594;52.052;8.354;2023-02-18T09:55:59;100535.00;;;12.20
16956;BMP180;8594;52.052;8.354;2023-02-18T09:58:30;100531.00;;;12.10
16956;BMP180;8594;52.052;8.354;2023-02-18T10:01:05;100536.00;;;11.90
16956;BMP180;8594;52.052;8.354;2023-02-18T10:03:32;100543.00;;;12.30
16956;BMP180;8594;52.052;8.354;2023-02-18T10:06:05;100548.00;;;12.10
16956;BMP180;8594;52.052;8.354;2023-02-18T10:08:36;100532.00;;;12.20
16956;BMP180;8594;52.052;8.354;2023-02-18T10:11:09;100518.00;;;11.90
16956;BMP180;8594;52.052;8.354;2023-02-18T10:13:40;100530.00;;;11.80
16956;BMP180;8594;52.052;8.354;2023-02-18T10:16:14;100529.00;;;12.20
16956;BMP180;8594;52.052;8.354;2023-02-18T10:18:45;100531.00;;;11.90
16956;BMP180;8594;52.052;8.354;2023-02-18T10:21:17;100527.00;;;12.00
16956;BMP180;8594;52.052;8.354;2023-02-18T10:23:55;100550.00;;;12.00
16956;BMP180;8594;52.052;8.354;2023-02-18T10:26:24;100542.00;;;11.90
16956;BMP180;8594;52.052;8.354;2023-02-18T10:28:51;100556.00;;;11.80
16956;BMP180;8594;52.052;8.354;2023-02-18T10:31:28;100552.00;;;11.90
16956;BMP180;8594;52.052;8.354;2023-02-18T10:34:04;100564.00;;;11.80
16956;BMP180;8594;52.052;8.354;2023-02-18T10:36:42;100562.00;;;11.70
16956;BMP180;8594;52.052;8.354;2023-02-18T10:39:45;100562.00;;;11.50
16956;BMP180;8594;52.052;8.354;2023-02-18T10:42:27;100555.00;;;11.80
16956;BMP180;8594;52.052;8.354;2023-02-18T10:45:08;100552.00;;;12.00
16956;BMP180;8594;52.052;8.354;2023-02-18T10:47:49;100552.00;;;12.00
16956;BMP180;8594;52.052;8.354;2023-02-18T10:50:27;100554.00;;;11.80
16956;BMP180;8594;52.052;8.354;2023-02-18T10:53:02;100559.00;;;11.50
16956;BMP180;8594;52.052;8.354;2023-02-18T10:55:37;100562.00;;;11.90
16956;BMP180;8594;52.052;8.354;2023-02-18T10:58:27;100566.00;;;12.20
16956;BMP180;8594;52.052;8.354;2023-02-18T11:00:56;100556.00;;;11.90
16956;BMP180;8594;52.052;8.354;2023-02-18T11:03:38;100554.00;;;11.70
16956;BMP180;8594;52.052;8.354;2023-02-18T11:06:17;100550.00;;;11.60
16956;BMP180;8594;52.052;8.354;2023-02-18T11:08:45;100553.00;;;11.70
16956;BMP180;8594;52.052;8.354;2023-02-18T11:11:17;100561.00;;;11.80
16956;BMP180;8594;52.052;8.354;2023-02-18T11:13:53;100570.00;;;12.00
16956;BMP180;8594;52.052;8.354;2023-02-18T11:16:21;100552.00;;;11.60
16956;BMP180;8594;52.052;8.354;2023-02-18T11:18:50;100558.00;;;11.90
16956;BMP180;8594;52.052;8.354;2023-02-18T11:21:28;100558.00;;;11.90
16956;BMP180;8594;52.052;8.354;2023-02-18T11:23:57;100564.00;;;11.90
16956;BMP180;8594;52.052;8.354;2023-02-18T11:26:34;100566.00;;;11.70
16956;BMP180;8594;52.052;8.354;2023-02-18T11:29:06;100576.00;;;11.80
16956;BMP180;8594;52.052;8.354;2023-02-18T11:31:43;100569.00;;;11.50
16956;BMP180;8594;52.052;8.354;2023-02-18T11:34:18;100567.00;;;12.20
16956;BMP180;8594;52.052;8.354;2023-02-18T11:36:47;100567.00;;;12.10
16956;BMP180;8594;52.052;8.354;2023-02-18T11:39:20;100552.00;;;11.70
16956;BMP180;8594;52.052;8.354;2023-02-18T11:41:53;100571.00;;;11.60
16956;BMP180;8594;52.052;8.354;2023-02-18T11:44:27;100563.00;;;11.60
16956;BMP180;8594;52.052;8.354;2023-02-18T11:46:59;100565.00;;;11.50
16956;BMP180;8594;52.052;8.354;2023-02-18T11:49:29;100577.00;;;11.80
16956;BMP180;8594;52.052;8.354;2023-02-18T11:52:10;100578.00;;;11.80
16956;BMP180;8594;52.052;8.354;2023-02-18T11:54:40;100581.00;;;11.80
16956;BMP180;8594;52.052;8.354;2023-02-18T11:57:11;100568.00;;;11.70
16956;BMP180;8594;52.052;8.354;2023-02-18T11:59:41;100569.00;;;11.60
16956;BMP180;8594;52.052;8.354;2023-02-18T12:02:29;100574.00;;;11.90
16956;BMP180;8594;52.052;8.354;2023-02-18T12:05:04;100577.00;;;11.80
16956;BMP180;8594;52.052;8.354;2023-02-18T12:07:43;100557.00;;;11.70
16956;BMP180;8594;52.052;8.354;2023-02-18T12:10:14;100558.00;;;11.80
16956;BMP180;8594;52.052;8.354;2023-02-18T12:12:50;100556.00;;;11.80
16956;BMP180;8594;52.052;8.354;2023-02-18T12:15:26;100559.00;;;11.80
16956;BMP180;8594;52.052;8.354;2023-02-18T12:18:12;100559.00;;;12.00
16956;BMP180;8594;52.052;8.354;2023-02-18T12:21:11;100560.00;;;11.80
16956;BMP180;8594;52.052;8.354;2023-02-18T12:23:54;100568.00;;;11.80
16956;BMP180;8594;52.052;8.354;2023-02-18T12:26:27;100567.00;;;11.70
16956;BMP180;8594;52.052;8.354;2023-02-18T12:29:16;100555.00;;;11.80
16956;BMP180;8594;52.052;8.354;2023-02-18T12:32:02;100551.00;;;11.80
16956;BMP180;8594;52.052;8.354;2023-02-18T12:34:47;100550.00;;;11.80
16956;BMP180;8594;52.052;8.354;2023-02-18T12:41:00;100572.00;;;11.70
16956;BMP180;8594;52.052;8.354;2023-02-18T12:43:44;100561.00;;;11.80
16956;BMP180;8594;52.052;8.354;2023-02-18T12:46:26;100566.00;;;12.20
16956;BMP180;8594;52.052;8.354;2023-02-18T12:49:26;100567.00;;;12.00
16956;BMP180;8594;52.052;8.354;2023-02-18T12:52:13;100572.00;;;12.00
16956;BMP180;8594;52.052;8.354;2023-02-18T12:55:22;100569.00;;;12.20
16956;BMP180;8594;52.052;8.354;2023-02-18T12:58:02;100566.00;;;11.90
16956;BMP180;8594;52.052;8.354;2023-02-18T13:00:56;100576.00;;;12.00
16956;BMP180;8594;52.052;8.354;2023-02-18T13:04:01;100561.00;;;11.90
16956;BMP180;8594;52.052;8.354;2023-02-18T13:10:20;100569.00;;;12.00
16956;BMP180;8594;52.052;8.354;2023-02-18T13:12:56;100564.00;;;12.00
16956;BMP180;8594;52.052;8.354;2023-02-18T13:15:36;100578.00;;;12.00
16956;BMP180;8594;52.052;8.354;2023-02-18T13:18:12;100576.00;;;11.90
16956;BMP180;8594;52.052;8.354;2023-02-18T13:20:44;100582.00;;;12.00
16956;BMP180;8594;52.052;8.354;2023-02-18T13:23:18;100583.00;;;12.20
16956;BMP180;8594;52.052;8.354;2023-02-18T13:25:54;100582.00;;;12.10
16956;BMP180;8594;52.052;8.354;2023-02-18T13:28:29;100580.00;;;12.10
16956;BMP180;8594;52.052;8.354;2023-02-18T13:31:14;100574.00;;;11.90
16956;BMP180;8594;52.052;8.354;2023-02-18T13:33:56;100571.00;;;11.60
16956;BMP180;8594;52.052;8.354;2023-02-18T13:36:53;100570.00;;;12.10
16956;BMP180;8594;52.052;8.354;2023-02-18T13:39:22;100569.00;;;12.30
16956;BMP180;8594;52.052;8.354;2023-02-18T13:42:19;100574.00;;;12.30
16956;BMP180;8594;52.052;8.354;2023-02-18T13:45:23;100583.00;;;12.40
16956;BMP180;8594;52.052;8.354;2023-02-18T13:47:53;100577.00;;;12.30
16956;BMP180;8594;52.052;8.354;2023-02-18T13:50:31;100588.00;;;12.40
16956;BMP180;8594;52.052;8.354;2023-02-18T13:53:23;100587.00;;;12.40
16956;BMP180;8594;52.052;8.354;2023-02-18T13:55:59;100581.00;;;12.20
16956;BMP180;8594;52.052;8.354;2023-02-18T13:58:36;100586.00;;;12.30
16956;BMP180;8594;52.052;8.354;2023-02-18T14:01:13;100576.00;;;12.70
16956;BMP180;8594;52.052;8.354;2023-02-18T14:03:57;100574.00;;;12.70
16956;BMP180;8594;52.052;8.354;2023-02-18T14:06:29;100588.00;;;12.60
16956;BMP180;8594;52.052;8.354;2023-02-18T14:09:40;100594.00;;;12.50
16956;BMP180;8594;52.052;8.354;2023-02-18T14:12:26;100578.00;;;12.20
16956;BMP180;8594;52.052;8.354;2023-02-18T14:18:23;100576.00;;;12.30
16956;BMP180;8594;52.052;8.354;2023-02-18T14:20:50;100572.00;;;12.60
16956;BMP180;8594;52.052;8.354;2023-02-18T14:24:04;100577.00;;;12.40
16956;BMP180;8594;52.052;8.354;2023-02-18T14:26:36;100571.00;;;12.30
16956;BMP180;8594;52.052;8.354;2023-02-18T14:29:14;100568.00;;;12.50
16956;BMP180;8594;52.052;8.354;2023-02-18T14:31:52;100580.00;;;12.70
16956;BMP180;8594;52.052;8.354;2023-02-18T14:38:05;100571.00;;;12.70
16956;BMP180;8594;52.052;8.354;2023-02-18T14:43:54;100579.00;;;12.60
16956;BMP180;8594;52.052;8.354;2023-02-18T14:46:38;100591.00;;;12.60
16956;BMP180;8594;52.052;8.354;2023-02-18T14:49:32;100577.00;;;12.60
16956;BMP180;8594;52.052;8.354;2023-02-18T14:52:04;100578.00;;;12.60
16956;BMP180;8594;52.052;8.354;2023-02-18T14:54:32;100576.00;;;12.70
16956;BMP180;8594;52.052;8.354;2023-02-18T14:57:03;100581.00;;;12.60
16956;BMP180;8594;52.052;8.354;2023-02-18T14:59:36;100577.00;;;12.60